createdAt,value
2022-08-11T00:01:52.940Z,101705.59
2022-08-11T00:04:21.974Z,101704.00
2022-08-11T00:06:49.230Z,101690.97
2022-08-11T00:09:22.515Z,101696.47
2022-08-11T00:11:52.640Z,101702.03
2022-08-11T00:14:22.338Z,101704.41
2022-08-11T00:17:04.290Z,101694.88
2022-08-11T00:20:14.629Z,101694.88
2022-08-11T00:22:21.626Z,101687.72
2022-08-11T00:24:53.999Z,101698.84
2022-08-11T00:27:31.967Z,101694.88
2022-08-11T00:29:59.074Z,101691.25
2022-08-11T00:32:26.883Z,101695.63
2022-08-11T00:35:53.803Z,101696.03
2022-08-11T00:37:48.023Z,101695.25
2022-08-11T00:40:19.981Z,101695.25
2022-08-11T00:42:58.922Z,101696.03
2022-08-11T00:45:46.919Z,101705.19
2022-08-11T00:48:23.502Z,101703.56
2022-08-11T00:51:02.376Z,101707.50
2022-08-11T00:53:46.899Z,101701.97
2022-08-11T00:56:39.799Z,101699.22
2022-08-11T00:59:43.798Z,101706.72
2022-08-11T01:02:35.716Z,101705.53
2022-08-11T01:05:24.401Z,101695.59
2022-08-11T01:08:06.529Z,101699.06
2022-08-11T01:11:28.362Z,101708.59
2022-08-11T01:14:34.091Z,101711.75
2022-08-11T01:17:25.223Z,101718.09
2022-08-11T01:20:45.867Z,101713.56
2022-08-11T01:23:07.357Z,101708.50
2022-08-11T01:25:57.538Z,101715.19
2022-08-11T01:28:56.415Z,101718.00
2022-08-11T01:31:44.547Z,101723.97
2022-08-11T01:34:26.417Z,101719.59
2022-08-11T01:37:11.686Z,101721.97
2022-08-11T01:40:09.050Z,101715.84
2022-08-11T01:43:16.669Z,101715.59
2022-08-11T01:45:43.392Z,101725.50
2022-08-11T01:48:22.191Z,101723.53
2022-08-11T01:51:02.119Z,101721.94
2022-08-11T01:53:56.868Z,101717.91
2022-08-11T01:56:33.435Z,101724.25
2022-08-11T01:59:12.420Z,101723.44
2022-08-11T02:02:10.218Z,101723.06
2022-08-11T02:04:49.718Z,101719.44
2022-08-11T02:07:31.996Z,101704.72
2022-08-11T02:09:58.718Z,101719.38
2022-08-11T02:13:00.731Z,101709.53
2022-08-11T02:15:34.658Z,101714.94
2022-08-11T02:18:14.073Z,101709.38
2022-08-11T02:21:18.621Z,101711.31
2022-08-11T02:24:07.699Z,101703.66
2022-08-11T02:27:01.005Z,101709.66
2022-08-11T02:29:33.891Z,101719.16
2022-08-11T02:32:39.013Z,101713.25
2022-08-11T02:35:28.740Z,101717.34
2022-08-11T02:38:18.758Z,101724.13
2022-08-11T02:40:54.589Z,101716.25
2022-08-11T02:43:37.064Z,101712.97
2022-08-11T02:46:27.842Z,101715.06
2022-08-11T02:49:22.276Z,101707.44
2022-08-11T02:52:30.608Z,101707.81
2022-08-11T02:55:48.709Z,101714.13
2022-08-11T02:58:17.945Z,101710.91
2022-08-11T03:01:11.502Z,101697.09
2022-08-11T03:03:53.813Z,101705.28
2022-08-11T03:06:37.475Z,101699.84
2022-08-11T03:09:17.387Z,101705.63
2022-08-11T03:12:24.487Z,101694.94
2022-08-11T03:15:22.046Z,101704.47
2022-08-11T03:18:03.126Z,101705.91
2022-08-11T03:20:43.792Z,101697.91
2022-08-11T03:23:47.787Z,101703.13
2022-08-11T03:26:38.762Z,101697.88
2022-08-11T03:29:31.278Z,101707.72
2022-08-11T03:32:13.302Z,101706.06
2022-08-11T03:34:41.038Z,101696.53
2022-08-11T03:37:44.749Z,101709.97
2022-08-11T03:40:58.560Z,101704.38
2022-08-11T03:43:58.129Z,101702.75
2022-08-11T03:46:56.690Z,101703.13
2022-08-11T03:49:42.184Z,101702.78
2022-08-11T03:52:16.038Z,101696.41
2022-08-11T03:54:58.009Z,101701.44
2022-08-11T03:57:46.117Z,101710.78
2022-08-11T04:00:24.094Z,101706.41
2022-08-11T04:03:09.741Z,101713.94
2022-08-11T04:06:07.376Z,101710.56
2022-08-11T04:08:58.920Z,101706.91
2022-08-11T04:11:54.963Z,101705.97
2022-08-11T04:15:18.316Z,101707.06
2022-08-11T04:18:07.006Z,101702.84
2022-08-11T04:20:49.994Z,101703.78
2022-08-11T04:24:36.972Z,101697.50
2022-08-11T04:26:40.759Z,101708.38
2022-08-11T04:29:25.715Z,101709.38
2022-08-11T04:32:15.977Z,101712.59
2022-08-11T04:34:58.137Z,101717.19
2022-08-11T04:37:43.720Z,101718.13
2022-08-11T04:40:43.164Z,101716.78
2022-08-11T04:44:02.151Z,101722.72
2022-08-11T04:46:49.597Z,101721.47
2022-08-11T04:50:19.687Z,101722.91
2022-08-11T04:53:20.136Z,101719.50
2022-08-11T04:56:28.041Z,101720.25
2022-08-11T04:59:51.431Z,101725.09
2022-08-11T05:02:37.330Z,101728.25
2022-08-11T05:05:32.014Z,101722.47
2022-08-11T05:08:49.220Z,101723.16
2022-08-11T05:11:35.073Z,101715.47
2022-08-11T05:14:46.996Z,101707.78
2022-08-11T05:17:34.763Z,101707.13
2022-08-11T05:20:20.247Z,101720.03
2022-08-11T05:23:09.982Z,101718.53
2022-08-11T05:26:09.377Z,101718.69
2022-08-11T05:29:20.108Z,101722.81
2022-08-11T05:32:10.123Z,101727.53
2022-08-11T05:34:50.846Z,101729.09
2022-08-11T05:37:27.219Z,101720.03
2022-08-11T05:40:33.659Z,101735.47
2022-08-11T05:43:21.439Z,101730.06
2022-08-11T05:46:18.078Z,101728.09
2022-08-11T05:49:04.380Z,101725.88
2022-08-11T05:51:55.244Z,101732.47
2022-08-11T05:54:42.261Z,101729.78
2022-08-11T05:57:09.869Z,101730.66
2022-08-11T05:59:36.860Z,101727.03
2022-08-11T06:02:06.936Z,101721.88
2022-08-11T06:04:34.431Z,101730.50
2022-08-11T06:07:08.959Z,101724.28
2022-08-11T06:09:38.321Z,101722.13
2022-08-11T06:12:16.569Z,101722.13
2022-08-11T06:14:45.862Z,101718.09
2022-08-11T06:17:13.892Z,101711.94
2022-08-11T06:19:43.254Z,101709.78
2022-08-11T06:22:13.587Z,101715.03
2022-08-11T06:24:42.691Z,101712.34
2022-08-11T06:27:12.831Z,101712.00
2022-08-11T06:29:55.279Z,101721.03
2022-08-11T06:32:32.360Z,101713.25
2022-08-11T06:35:25.723Z,101718.50
2022-08-11T06:38:16.175Z,101714.81
2022-08-11T06:41:24.054Z,101718.63
2022-08-11T06:44:10.710Z,101715.31
2022-08-11T06:46:47.906Z,101720.03
2022-08-11T06:49:34.664Z,101721.16
2022-08-11T06:52:35.192Z,101726.31
2022-08-11T06:55:56.882Z,101727.84
2022-08-11T06:58:23.749Z,101715.91
2022-08-11T07:00:54.857Z,101721.91
2022-08-11T07:03:22.797Z,101711.00
2022-08-11T07:06:01.037Z,101710.47
2022-08-11T07:12:19.556Z,101726.72
2022-08-11T07:15:15.290Z,101711.63
2022-08-11T07:18:11.043Z,101709.09
2022-08-11T07:21:02.328Z,101721.28
2022-08-11T07:23:53.240Z,101712.75
2022-08-11T07:26:41.190Z,101710.50
2022-08-11T07:29:10.667Z,101715.38
2022-08-11T07:31:42.313Z,101706.56
2022-08-11T07:34:17.914Z,101715.66
2022-08-11T07:37:13.638Z,101709.59
2022-08-11T07:39:45.101Z,101714.88
2022-08-11T07:42:14.677Z,101716.09
2022-08-11T07:45:02.412Z,101710.78
2022-08-11T07:47:48.714Z,101713.13
2022-08-11T07:50:35.211Z,101719.75
2022-08-11T07:53:03.027Z,101715.69
2022-08-11T07:55:50.806Z,101719.69
2022-08-11T07:58:52.271Z,101712.41
2022-08-11T08:01:41.344Z,101706.88
2022-08-11T08:04:30.235Z,101724.00
2022-08-11T08:07:17.221Z,101722.53
2022-08-11T08:10:07.480Z,101714.66
2022-08-11T08:12:53.948Z,101713.34
2022-08-11T08:15:40.807Z,101714.00
2022-08-11T08:18:26.686Z,101719.94
2022-08-11T08:20:56.213Z,101718.22
2022-08-11T08:23:33.577Z,101715.50
2022-08-11T08:26:03.519Z,101718.72
2022-08-11T08:28:32.753Z,101722.03
2022-08-11T08:31:00.525Z,101718.25
2022-08-11T08:33:29.225Z,101715.28
2022-08-11T08:36:12.512Z,101720.81
2022-08-11T08:38:49.116Z,101723.97
2022-08-11T08:41:35.451Z,101724.25
2022-08-11T08:44:37.250Z,101719.75
2022-08-11T08:47:01.177Z,101714.38
2022-08-11T08:52:18.669Z,101713.00
2022-08-11T08:52:34.517Z,101706.41
2022-08-11T08:55:06.924Z,101706.34
2022-08-11T08:57:39.923Z,101715.41
2022-08-11T09:00:13.094Z,101713.38
2022-08-11T09:02:44.473Z,101712.50
2022-08-11T09:05:13.711Z,101718.19
2022-08-11T09:07:47.242Z,101708.16
2022-08-11T09:10:17.499Z,101709.94
2022-08-11T09:12:45.566Z,101702.59
2022-08-11T09:15:19.584Z,101706.72
2022-08-11T09:17:49.385Z,101708.69
2022-08-11T09:20:21.989Z,101703.91
2022-08-11T09:26:16.555Z,101684.81
2022-08-11T09:28:44.975Z,101698.56
2022-08-11T09:31:13.566Z,101691.56
2022-08-11T09:33:42.829Z,101689.47
2022-08-11T09:36:28.833Z,101694.88
2022-08-11T09:39:16.009Z,101692.09
2022-08-11T09:42:01.099Z,101687.50
2022-08-11T09:44:48.918Z,101676.94
2022-08-11T09:47:29.882Z,101677.03
2022-08-11T09:50:01.488Z,101671.31
2022-08-11T09:52:32.552Z,101674.16
2022-08-11T09:55:01.330Z,101666.69
2022-08-11T09:57:46.827Z,101665.59
2022-08-11T10:00:15.422Z,101668.06
2022-08-11T10:02:47.465Z,101664.13
2022-08-11T10:05:37.169Z,101657.78
2022-08-11T10:08:10.917Z,101657.31
2022-08-11T10:10:40.050Z,101662.91
2022-08-11T10:13:43.982Z,101641.84
2022-08-11T10:16:14.641Z,101650.22
2022-08-11T10:18:53.193Z,101644.84
2022-08-11T10:21:28.693Z,101646.66
2022-08-11T10:24:19.196Z,101648.66
2022-08-11T10:27:00.709Z,101646.66
2022-08-11T10:29:51.157Z,101643.72
2022-08-11T10:32:58.307Z,101636.13
2022-08-11T10:35:31.353Z,101647.91
2022-08-11T10:38:09.051Z,101635.50
2022-08-11T10:41:00.524Z,101634.50
2022-08-11T10:44:02.025Z,101640.13
2022-08-11T10:46:35.505Z,101621.06
2022-08-11T10:49:05.846Z,101625.56
2022-08-11T10:51:53.751Z,101623.91
2022-08-11T10:54:40.722Z,101626.53
2022-08-11T10:57:27.793Z,101622.53
2022-08-11T10:59:56.712Z,101624.69
2022-08-11T11:02:27.562Z,101622.88
2022-08-11T11:05:33.327Z,101625.66
2022-08-11T11:08:46.189Z,101618.59
2022-08-11T11:11:18.237Z,101622.97
2022-08-11T11:14:13.197Z,101611.09
2022-08-11T11:17:00.358Z,101624.38
2022-08-11T11:19:28.838Z,101605.56
2022-08-11T11:22:20.497Z,101611.03
2022-08-11T11:25:11.410Z,101615.50
2022-08-11T11:28:11.019Z,101607.97
2022-08-11T11:31:04.866Z,101596.22
2022-08-11T11:34:06.374Z,101600.28
2022-08-11T11:36:49.653Z,101600.09
2022-08-11T11:39:27.433Z,101587.66
2022-08-11T11:41:56.965Z,101598.28
2022-08-11T11:44:25.454Z,101591.03
2022-08-11T11:46:56.719Z,101584.00
2022-08-11T11:49:32.467Z,101593.19
2022-08-11T11:52:00.197Z,101597.00
2022-08-11T11:54:30.616Z,101586.41
2022-08-11T11:56:58.719Z,101578.69
2022-08-11T11:59:46.527Z,101566.34
2022-08-11T12:02:15.845Z,101577.34
2022-08-11T12:04:44.942Z,101583.56
2022-08-11T12:07:30.561Z,101575.81
2022-08-11T12:09:57.818Z,101578.13
2022-08-11T12:12:44.144Z,101562.81
2022-08-11T12:15:11.828Z,101577.53
2022-08-11T12:17:39.167Z,101568.53
2022-08-11T12:20:30.836Z,101570.31
2022-08-11T12:23:18.394Z,101567.75
2022-08-11T12:26:25.892Z,101568.31
2022-08-11T12:28:51.484Z,101549.94
2022-08-11T12:31:22.277Z,101561.53
2022-08-11T12:33:50.656Z,101542.41
2022-08-11T12:36:18.279Z,101537.66
2022-08-11T12:38:51.315Z,101539.94
2022-08-11T12:41:39.567Z,101547.03
2022-08-11T12:44:30.018Z,101549.28
2022-08-11T12:47:00.285Z,101543.59
2022-08-11T12:49:47.350Z,101540.63
2022-08-11T12:52:21.211Z,101536.66
2022-08-11T12:55:03.659Z,101536.00
2022-08-11T12:58:07.524Z,101534.63
2022-08-11T13:01:02.780Z,101523.88
2022-08-11T13:03:52.623Z,101512.94
2022-08-11T13:06:24.701Z,101517.22
2022-08-11T13:08:52.408Z,101513.59
2022-08-11T13:11:55.549Z,101519.19
2022-08-11T13:14:28.669Z,101517.31
2022-08-11T13:17:14.721Z,101493.75
2022-08-11T13:19:45.117Z,101504.59
2022-08-11T13:22:19.018Z,101485.91
2022-08-11T13:24:46.507Z,101501.81
2022-08-11T13:27:13.554Z,101486.34
2022-08-11T13:29:46.852Z,101490.38
2022-08-11T13:32:16.080Z,101488.34
2022-08-11T13:34:46.394Z,101508.97
2022-08-11T13:37:14.947Z,101490.50
2022-08-11T13:39:48.301Z,101497.31
2022-08-11T13:42:16.512Z,101494.19
2022-08-11T13:44:44.003Z,101482.44
2022-08-11T13:47:13.638Z,101481.97
2022-08-11T13:49:41.483Z,101467.03
2022-08-11T13:52:15.897Z,101470.19
2022-08-11T13:54:44.308Z,101481.06
2022-08-11T13:58:08.835Z,101467.38
2022-08-11T14:00:27.663Z,101465.38
2022-08-11T14:02:56.348Z,101461.91
2022-08-11T14:05:30.316Z,101462.31
2022-08-11T14:08:03.562Z,101477.00
2022-08-11T14:13:42.547Z,101455.28
2022-08-11T14:16:22.594Z,101461.44
2022-08-11T14:18:52.815Z,101459.09
2022-08-11T14:21:40.987Z,101451.88
2022-08-11T14:24:08.341Z,101450.78
2022-08-11T14:26:39.029Z,101443.03
2022-08-11T14:29:17.210Z,101435.97
2022-08-11T14:31:46.697Z,101450.91
2022-08-11T14:34:14.835Z,101444.50
2022-08-11T14:36:46.315Z,101440.13
2022-08-11T14:39:17.347Z,101431.38
2022-08-11T14:42:12.353Z,101437.41
2022-08-11T14:45:09.459Z,101435.97
2022-08-11T14:47:38.595Z,101422.84
2022-08-11T14:50:10.733Z,101422.13
2022-08-11T14:52:40.773Z,101433.03
2022-08-11T14:55:26.659Z,101417.78
2022-08-11T14:57:56.108Z,101422.16
2022-08-11T15:00:23.871Z,101424.97
2022-08-11T15:03:09.850Z,101411.75
2022-08-11T15:05:39.617Z,101408.16
2022-08-11T15:08:07.631Z,101411.19
2022-08-11T15:10:35.038Z,101398.63
2022-08-11T15:13:09.521Z,101405.25
2022-08-11T15:15:55.642Z,101406.25
2022-08-11T15:18:24.354Z,101396.25
2022-08-11T15:21:13.388Z,101399.03
2022-08-11T15:24:01.991Z,101398.50
2022-08-11T15:27:01.802Z,101393.13
2022-08-11T15:29:49.160Z,101391.47
2022-08-11T15:32:37.135Z,101392.09
2022-08-11T15:35:22.862Z,101391.13
2022-08-11T15:38:09.989Z,101389.31
2022-08-11T15:40:57.881Z,101395.47
2022-08-11T15:44:09.414Z,101394.69
2022-08-11T15:46:45.385Z,101384.25
2022-08-11T15:49:23.746Z,101394.25
2022-08-11T15:52:08.058Z,101400.41
2022-08-11T15:54:39.123Z,101382.13
2022-08-11T15:57:06.144Z,101386.41
2022-08-11T15:59:53.053Z,101386.19
2022-08-11T16:02:43.355Z,101387.50
2022-08-11T16:05:45.770Z,101381.78
2022-08-11T16:08:01.971Z,101383.41
2022-08-11T16:10:30.531Z,101384.59
2022-08-11T16:13:02.770Z,101392.47
2022-08-11T16:15:49.248Z,101386.31
2022-08-11T16:18:17.173Z,101382.00
2022-08-11T16:20:45.145Z,101376.66
2022-08-11T16:23:15.447Z,101382.81
2022-08-11T16:27:01.886Z,101365.41
2022-08-11T16:28:32.032Z,101369.47
2022-08-11T16:31:00.539Z,101364.53
2022-08-11T16:33:49.947Z,101365.91
2022-08-11T16:36:34.522Z,101363.50
2022-08-11T16:39:02.021Z,101367.09
2022-08-11T16:41:52.289Z,101364.84
2022-08-11T16:44:39.242Z,101363.28
2022-08-11T16:47:08.733Z,101371.84
2022-08-11T16:50:08.057Z,101367.97
2022-08-11T16:56:44.386Z,101364.06
2022-08-11T16:59:20.981Z,101361.19
2022-08-11T17:01:56.712Z,101364.66
2022-08-11T17:05:09.795Z,101376.28
2022-08-11T17:07:57.686Z,101361.44
2022-08-11T17:10:53.702Z,101360.94
2022-08-11T17:13:34.760Z,101365.41
2022-08-11T17:16:12.267Z,101365.16
2022-08-11T17:18:45.509Z,101359.34
2022-08-11T17:21:17.971Z,101358.81
2022-08-11T17:23:50.838Z,101352.97
2022-08-11T17:26:25.988Z,101361.34
2022-08-11T17:28:58.404Z,101353.97
2022-08-11T17:31:45.803Z,101353.28
2022-08-11T17:34:32.310Z,101350.38
2022-08-11T17:37:00.239Z,101354.53
2022-08-11T17:39:30.327Z,101351.63
2022-08-11T17:42:16.820Z,101353.50
2022-08-11T17:45:02.470Z,101353.00
2022-08-11T17:47:48.346Z,101351.59
2022-08-11T17:50:16.921Z,101352.94
2022-08-11T17:53:05.284Z,101355.66
2022-08-11T17:55:53.518Z,101355.13
2022-08-11T17:58:40.344Z,101350.75
2022-08-11T18:01:08.699Z,101348.44
2022-08-11T18:03:40.093Z,101351.34
2022-08-11T18:06:12.476Z,101367.09
2022-08-11T18:09:02.933Z,101360.47
2022-08-11T18:12:11.240Z,101364.06
2022-08-11T18:14:58.537Z,101372.47
2022-08-11T18:17:43.896Z,101364.94
2022-08-11T18:20:29.348Z,101373.38
2022-08-11T18:23:15.957Z,101368.31
2022-08-11T18:26:07.060Z,101379.28
2022-08-11T18:29:04.251Z,101381.28
2022-08-11T18:31:52.753Z,101380.09
2022-08-11T18:34:45.726Z,101376.19
2022-08-11T18:37:38.420Z,101359.78
2022-08-11T18:40:31.285Z,101365.97
2022-08-11T18:43:21.031Z,101374.91
2022-08-11T18:46:11.064Z,101382.41
2022-08-11T18:49:11.838Z,101373.97
2022-08-11T18:52:00.705Z,101383.06
2022-08-11T18:54:51.207Z,101390.47
2022-08-11T18:57:49.418Z,101392.56
2022-08-11T19:00:41.709Z,101392.72
2022-08-11T19:03:29.712Z,101391.69
2022-08-11T19:06:38.344Z,101387.38
2022-08-11T19:09:26.785Z,101395.16
2022-08-11T19:12:12.603Z,101384.22
2022-08-11T19:14:58.920Z,101391.75
2022-08-11T19:17:46.001Z,101391.47
2022-08-11T19:20:43.231Z,101387.16
2022-08-11T19:23:30.105Z,101392.94
2022-08-11T19:26:16.436Z,101394.66
2022-08-11T19:29:04.803Z,101401.63
2022-08-11T19:31:50.164Z,101403.84
2022-08-11T19:34:37.360Z,101412.78
2022-08-11T19:37:25.573Z,101408.84
2022-08-11T19:40:20.291Z,101410.31
2022-08-11T19:43:18.675Z,101403.53
2022-08-11T19:46:15.629Z,101408.84
2022-08-11T19:49:02.546Z,101417.88
2022-08-11T19:51:53.562Z,101424.75
2022-08-11T19:54:45.826Z,101422.16
2022-08-11T19:57:37.121Z,101420.78
2022-08-11T20:00:33.315Z,101424.16
2022-08-11T20:03:20.070Z,101419.25
2022-08-11T20:06:08.073Z,101418.69
2022-08-11T20:08:58.335Z,101421.75
2022-08-11T20:11:49.311Z,101417.31
2022-08-11T20:14:38.681Z,101413.22
2022-08-11T20:17:26.282Z,101416.09
2022-08-11T20:20:12.011Z,101412.75
2022-08-11T20:22:57.937Z,101426.47
2022-08-11T20:25:44.822Z,101419.09
2022-08-11T20:28:32.190Z,101422.16
2022-08-11T20:31:17.642Z,101420.94
2022-08-11T20:34:03.435Z,101422.88
2022-08-11T20:36:54.131Z,101421.19
2022-08-11T20:39:40.690Z,101429.41
2022-08-11T20:42:39.948Z,101428.97
2022-08-11T20:45:26.602Z,101420.75
2022-08-11T20:48:14.521Z,101430.72
2022-08-11T20:51:02.092Z,101430.06
2022-08-11T20:53:54.633Z,101429.00
2022-08-11T20:56:41.870Z,101433.09
2022-08-11T20:59:28.512Z,101428.31
2022-08-11T21:02:19.360Z,101425.44
2022-08-11T21:05:05.623Z,101420.50
2022-08-11T21:07:57.064Z,101434.53
2022-08-11T21:10:55.226Z,101424.59
2022-08-11T21:13:46.163Z,101431.09
2022-08-11T21:16:34.812Z,101437.25
2022-08-11T21:20:06.678Z,101435.00
2022-08-11T21:22:59.169Z,101434.13
2022-08-11T21:25:59.322Z,101436.03
2022-08-11T21:28:45.884Z,101444.41
2022-08-11T21:31:31.577Z,101444.84
2022-08-11T21:34:17.582Z,101444.19
2022-08-11T21:37:04.036Z,101448.59
2022-08-11T21:39:49.976Z,101448.22
2022-08-11T21:42:37.061Z,101441.88
2022-08-11T21:45:23.330Z,101437.38
2022-08-11T21:48:12.748Z,101439.31
2022-08-11T21:51:05.561Z,101440.78
2022-08-11T21:53:52.112Z,101432.84
2022-08-11T21:56:37.494Z,101431.66
2022-08-11T21:59:23.850Z,101441.28
2022-08-11T22:02:12.750Z,101434.66
2022-08-11T22:05:01.095Z,101433.03
2022-08-11T22:07:57.567Z,101437.53
2022-08-11T22:10:43.463Z,101434.38
2022-08-11T22:13:30.670Z,101426.81
2022-08-11T22:16:27.321Z,101425.34
2022-08-11T22:19:13.548Z,101423.00
2022-08-11T22:22:06.304Z,101422.34
2022-08-11T22:24:53.838Z,101412.00
2022-08-11T22:27:40.619Z,101427.50
2022-08-11T22:30:30.934Z,101418.03
2022-08-11T22:33:21.778Z,101420.34
2022-08-11T22:36:13.436Z,101417.63
2022-08-11T22:39:00.125Z,101424.72
2022-08-11T22:41:46.560Z,101422.34
2022-08-11T22:44:35.696Z,101426.72
2022-08-11T22:47:22.028Z,101421.44
2022-08-11T22:50:13.150Z,101422.50
2022-08-11T22:53:01.584Z,101420.44
2022-08-11T22:55:50.975Z,101424.38
2022-08-11T22:58:38.724Z,101421.38
2022-08-11T23:01:24.637Z,101422.16
2022-08-11T23:04:11.100Z,101419.13
2022-08-11T23:07:00.515Z,101418.50
2022-08-11T23:09:45.799Z,101417.41
2022-08-11T23:12:31.869Z,101419.78
2022-08-11T23:15:18.303Z,101415.19
2022-08-11T23:18:03.542Z,101415.56
2022-08-11T23:20:49.427Z,101420.47
2022-08-11T23:23:36.269Z,101416.97
2022-08-11T23:26:22.620Z,101418.19
2022-08-11T23:29:07.934Z,101413.03
2022-08-11T23:31:54.248Z,101416.72
2022-08-11T23:35:04.390Z,101418.28
2022-08-11T23:37:55.668Z,101425.91
2022-08-11T23:40:45.037Z,101418.66
2022-08-11T23:43:42.157Z,101414.84
2022-08-11T23:46:28.312Z,101413.97
2022-08-11T23:49:20.565Z,101406.53
2022-08-11T23:52:06.908Z,101422.09
2022-08-11T23:54:55.874Z,101422.50
2022-08-11T23:57:47.985Z,101418.56
